PAGA

Edward G. Pitka Sr. Airport

Airport
ICAO code
PAGA
Summary
ICAO Region
NAM
ICAO Territory
Location

Galena,

Coordinates
64° 44' 13" N , 156° 57' 9" W
KCC
Airport BS
Bird Strike
Airport CFIT
Altimeter Temperature Error Correction
Metar
PAGA 240656Z AUTO 31003KT 9SM CLR 23/12 A2999 RMK AO2 SLP157 T02330122 TSNO $

Description

Regional airport serving Galena, Alaska. Formerly Galena Air Force Base.

Climatology

Subarctic climate (Köppen climate classification Dfc) - long, usually very cold winters, and short, cool to mild summers.

Runways

Designator Length Width Surface Rops
6/24 849 24 GVL No/No
7/25 2211 46 PEM Yes/Yes

Airport map

Aerial View

SKYbrary Partners:

Safety knowledge contributed by: